Time;durP1;ratioP1;P1;durP2;ratioP2;P2;SDS_P1;SDS_P2;PMS_P1;PMS_P2;Temp;Humidity;BMP_temperature;BMP_pressure;BME280_temperature;BME280_humidity;BME280_pressure;Samples;Min_cycle;Max_cycle;Signal;HPM_P1;HPM_P2
2023/08/10 00:01:41;;;;;;;4.70;2.33;;;15.90;99.90;;;15.66;71.27;101277.34;5052978;28;20638;-74
2023/08/10 00:04:10;;;;;;;8.73;2.40;;;15.90;99.90;;;15.59;71.46;101270.97;5052977;28;20723;-74
2023/08/10 00:06:42;;;;;;;6.33;2.93;;;15.80;99.90;;;15.51;71.73;101270.22;5053246;28;20206;-74
2023/08/10 00:09:15;;;;;;;6.40;2.97;;;15.70;99.90;;;15.53;71.00;101270.88;5052894;28;20635;-74
2023/08/10 00:11:47;;;;;;;5.20;2.50;;;15.70;99.90;;;15.55;71.02;101269.66;5052949;28;20640;-74
2023/08/10 00:14:19;;;;;;;4.20;2.57;;;15.80;99.90;;;15.51;71.73;101273.75;5053197;28;20254;-74
2023/08/10 00:16:51;;;;;;;3.43;2.20;;;15.70;99.90;;;15.38;71.32;101273.44;5053178;28;20269;-74
2023/08/10 00:19:23;;;;;;;3.73;2.37;;;15.60;99.90;;;15.39;71.78;101283.22;5053208;28;20285;-74
2023/08/10 00:21:55;;;;;;;5.57;2.47;;;15.50;99.90;;;15.30;72.23;101276.22;5056740;28;20715;-74
2023/08/10 00:24:28;;;;;;;5.37;2.93;;;15.50;99.90;;;15.33;71.48;101281.25;5057212;28;20285;-75
2023/08/10 00:27:00;;;;;;;5.13;2.90;;;15.50;99.90;;;15.29;71.26;101282.63;5057164;28;20194;-75
2023/08/10 00:29:33;;;;;;;6.90;3.20;;;15.50;99.90;;;15.15;71.86;101288.78;5057023;28;20297;-75
2023/08/10 00:32:05;;;;;;;4.80;2.70;;;15.40;99.90;;;15.15;71.78;101277.97;5057021;28;20194;-75
2023/08/10 00:34:37;;;;;;;4.60;2.70;;;15.30;99.90;;;15.17;72.18;101281.38;5057067;28;20244;-73
2023/08/10 00:37:09;;;;;;;3.77;2.73;;;15.40;99.90;;;15.16;71.56;101290.47;5057177;28;20187;-74
2023/08/10 00:39:42;;;;;;;6.07;2.70;;;15.40;99.90;;;15.11;72.28;101282.88;5057218;28;20186;-74
2023/08/10 00:42:14;;;;;;;3.80;2.30;;;15.30;99.90;;;15.13;71.91;101285.41;5056722;28;20659;-74
2023/08/10 00:44:46;;;;;;;5.10;2.27;;;15.30;99.90;;;15.05;72.11;101278.22;5056961;28;20221;-74
2023/08/10 00:47:18;;;;;;;5.93;2.50;;;15.30;99.90;;;14.99;72.43;101287.00;5056665;28;20292;-74
2023/08/10 00:49:51;;;;;;;6.07;2.47;;;15.10;99.90;;;14.96;72.86;101278.44;5056718;28;20300;-75
2023/08/10 00:52:22;;;;;;;5.33;2.67;;;15.10;99.90;;;14.98;72.77;101276.38;5056307;28;20672;-75
2023/08/10 00:54:56;;;;;;;4.73;2.60;;;15.20;99.90;;;14.99;72.44;101286.16;5056643;28;20190;-75
2023/08/10 00:57:28;;;;;;;4.77;2.50;;;15.20;99.90;;;15.01;72.16;101292.22;5056359;28;20229;-73
2023/08/10 01:00:00;;;;;;;3.83;2.63;;;16.10;99.90;;;15.00;72.54;101291.38;5056279;28;20277;-73
2023/08/10 01:02:32;;;;;;;4.00;2.40;;;15.20;99.90;;;14.93;73.90;101289.56;5056446;28;20280;-74
2023/08/10 01:05:05;;;;;;;4.67;2.30;;;15.20;99.90;;;14.83;73.73;101294.31;5056484;28;20190;-74
2023/08/10 01:07:45;;;;;;;4.10;2.20;;;15.10;99.90;;;14.81;74.66;101299.03;5057327;28;20288;-74
2023/08/10 01:10:34;;;;;;;5.13;2.57;;;15.10;99.90;;;14.85;74.32;101300.38;5056356;28;20186;-74
2023/08/10 01:13:20;;;;;;;6.80;2.97;;;15.10;99.90;;;14.88;73.92;101300.03;5056183;28;20250;-73
2023/08/10 01:15:57;;;;;;;7.17;2.77;;;15.20;99.90;;;14.89;73.36;101301.72;5055942;28;20644;-74
2023/08/10 01:18:31;;;;;;;6.17;2.93;;;15.20;99.90;;;14.80;74.54;101300.03;5056185;28;20190;-74
2023/08/10 01:21:13;;;;;;;5.47;2.50;;;15.00;99.90;;;14.71;74.30;101305.47;5056214;28;20187;-74
2023/08/10 01:23:49;;;;;;;5.90;2.80;;;14.90;99.90;;;14.64;75.15;101309.03;5056077;28;20324;-74
2023/08/10 01:26:26;;;;;;;11.33;3.20;;;14.80;99.90;;;14.63;73.69;101302.78;5055755;28;20679;-74
2023/08/10 01:29:00;;;;;;;5.33;2.70;;;14.90;99.90;;;14.58;75.07;101310.56;5055923;28;20211;-74
2023/08/10 01:31:32;;;;;;;5.87;2.67;;;14.80;99.90;;;14.64;74.94;101307.19;5054922;28;20715;-74
2023/08/10 01:34:04;;;;;;;5.20;3.00;;;14.90;99.90;;;14.61;74.36;101312.06;5055855;28;20252;-74
2023/08/10 01:36:36;;;;;;;6.63;2.97;;;14.90;99.90;;;14.56;74.69;101315.28;5055870;28;20273;-74
2023/08/10 01:39:09;;;;;;;3.97;2.70;;;14.80;99.90;;;14.58;74.65;101313.28;5055539;28;20221;-74
2023/08/10 01:41:42;;;;;;;5.57;2.90;;;14.90;99.90;;;14.56;74.69;101315.28;5055760;28;20194;-74
2023/08/10 01:44:14;;;;;;;6.47;2.97;;;14.80;99.90;;;14.49;74.79;101316.13;5055704;28;20320;-74
2023/08/10 01:46:50;;;;;;;6.57;3.17;;;14.80;99.90;;;14.41;75.01;101317.00;5055279;28;20241;-74
2023/08/10 01:49:26;;;;;;;6.33;2.90;;;14.70;99.90;;;14.40;75.15;101314.47;5055560;28;20239;-74
2023/08/10 01:52:01;;;;;;;7.43;2.70;;;14.70;99.90;;;14.34;75.11;101317.84;5055595;28;20286;-74
2023/08/10 01:54:36;;;;;;;8.60;3.20;;;14.80;99.90;;;14.30;75.61;101314.63;5055528;28;20190;-74
2023/08/10 01:57:09;;;;;;;9.10;3.30;;;14.50;99.90;;;14.24;75.58;101315.31;5055178;28;20280;-74
2023/08/10 01:59:41;;;;;;;7.57;3.10;;;14.50;99.90;;;14.26;76.09;101307.91;5055471;28;20294;-73
2023/08/10 02:02:11;;;;;;;6.83;3.30;;;14.50;99.90;;;14.21;76.26;101316.47;5055278;28;20200;-74
2023/08/10 02:04:43;;;;;;;6.93;3.03;;;14.50;99.90;;;14.23;76.05;101316.31;5055342;28;20226;-74
2023/08/10 02:07:15;;;;;;;9.43;3.17;;;14.50;99.90;;;14.22;76.11;101312.78;5055854;28;20195;-74
2023/08/10 02:09:47;;;;;;;9.17;2.70;;;14.50;99.90;;;14.20;75.49;101309.44;5055174;28;20304;-74
2023/08/10 02:12:20;;;;;;;7.57;3.10;;;14.50;99.90;;;14.15;75.36;101313.63;5055105;28;20218;-74
2023/08/10 02:14:52;;;;;;;3.90;2.80;;;14.40;99.90;;;14.17;75.28;101317.00;5054871;28;20713;-74
2023/08/10 02:17:25;;;;;;;5.37;2.67;;;14.40;99.90;;;14.11;74.98;101314.97;5055119;28;20194;-74
2023/08/10 02:19:57;;;;;;;5.27;3.13;;;14.40;99.90;;;14.07;75.64;101311.81;5055054;28;20192;-74
2023/08/10 02:22:28;;;;;;;6.20;2.50;;;14.30;99.90;;;14.07;75.17;101319.03;5054964;28;20257;-74
2023/08/10 02:25:00;;;;;;;5.40;2.57;;;14.40;99.90;;;14.03;75.16;101323.06;5055021;28;20190;-74
2023/08/10 02:27:34;;;;;;;4.97;2.50;;;14.30;99.90;;;13.94;75.72;101324.09;5054987;28;20243;-74
2023/08/10 02:30:07;;;;;;;5.10;2.73;;;14.20;99.90;;;13.91;75.39;101319.84;5054828;28;20214;-74
2023/08/10 02:32:40;;;;;;;5.93;2.90;;;14.20;99.90;;;13.95;74.79;101336.50;5054464;28;20283;-74
2023/08/10 02:35:13;;;;;;;5.43;2.67;;;14.20;99.90;;;13.83;75.08;101327.94;5054814;28;20193;-74
2023/08/10 02:37:46;;;;;;;8.30;2.93;;;14.10;99.90;;;13.73;75.33;101326.41;5054714;28;20237;-74
2023/08/10 02:40:19;;;;;;;6.83;2.80;;;14.00;99.90;;;13.71;75.77;101329.25;5054383;28;20650;-74
2023/08/10 02:42:53;;;;;;;3.47;2.57;;;13.90;99.90;;;13.63;75.92;101322.00;5054574;28;20222;-74
2023/08/10 02:45:25;;;;;;;6.47;2.60;;;13.90;99.90;;;13.73;74.94;101329.09;5054275;28;20720;-74
2023/08/10 02:47:57;;;;;;;5.23;2.33;;;14.00;99.90;;;13.80;74.49;101332.81;5054153;28;20218;-74
2023/08/10 02:50:29;;;;;;;5.60;2.67;;;14.20;99.90;;;13.66;74.85;101321.69;5054099;28;20755;-74
2023/08/10 02:53:01;;;;;;;3.10;2.43;;;14.00;99.90;;;13.58;75.28;101334.28;5054051;28;20572;-74
2023/08/10 02:55:33;;;;;;;6.17;3.20;;;13.80;99.90;;;13.48;74.85;101338.97;5054388;28;20194;-74
2023/08/10 02:58:06;;;;;;;5.00;2.70;;;13.80;99.90;;;13.50;75.32;101337.81;5054567;28;20286;-74
2023/08/10 03:00:41;;;;;;;3.07;2.40;;;13.70;99.90;;;13.43;75.33;101334.09;5053983;28;20648;-74
2023/08/10 03:03:13;;;;;;;5.40;2.77;;;13.70;99.90;;;13.49;75.44;101330.72;5053915;28;20570;-75
2023/08/10 03:05:45;;;;;;;3.63;2.90;;;13.70;99.90;;;13.46;75.39;101335.63;5054194;28;20278;-74
2023/08/10 03:08:17;;;;;;;6.87;2.57;;;13.70;99.90;;;13.43;75.81;101336.78;5054120;28;20624;-74
2023/08/10 03:10:48;;;;;;;4.83;2.63;;;13.70;99.90;;;13.43;75.25;101342.16;5053990;28;20214;-74
2023/08/10 03:13:22;;;;;;;3.80;2.50;;;13.70;99.90;;;13.46;75.25;101347.19;5053976;28;20265;-74
2023/08/10 03:15:56;;;;;;;4.47;2.57;;;13.80;99.90;;;13.47;75.32;101346.19;5053712;28;20236;-74
2023/08/10 03:18:28;;;;;;;5.00;2.77;;;13.80;99.90;;;13.37;75.91;101342.81;5053637;28;20211;-74
2023/08/10 03:20:59;;;;;;;3.80;2.47;;;13.70;99.90;;;13.26;75.96;101350.31;5053922;28;20233;-74
2023/08/10 03:23:31;;;;;;;4.07;2.77;;;13.50;99.90;;;13.30;76.54;101341.78;5053531;28;20751;-74
2023/08/10 03:26:04;;;;;;;6.83;2.73;;;13.60;99.90;;;13.28;77.03;101343.81;5053905;28;20201;-74
2023/08/10 03:28:37;;;;;;;6.70;2.67;;;13.60;99.90;;;13.29;76.25;101336.59;5053788;28;20201;-74
2023/08/10 03:31:11;;;;;;;3.80;2.47;;;13.60;99.90;;;13.34;76.24;101345.84;5053434;28;20702;-73
2023/08/10 03:33:43;;;;;;;4.93;2.53;;;13.70;99.90;;;13.32;76.27;101339.75;5053444;28;20738;-74
2023/08/10 03:36:15;;;;;;;3.43;2.50;;;13.70;99.90;;;13.28;76.62;101348.34;5053985;28;20237;-73
2023/08/10 03:38:47;;;;;;;4.43;2.53;;;13.60;99.90;;;13.23;76.84;101346.13;5053947;28;20200;-74
2023/08/10 03:41:19;;;;;;;3.33;2.17;;;13.50;99.90;;;13.18;77.07;101343.91;5053636;28;20307;-74
2023/08/10 03:43:52;;;;;;;2.87;2.57;;;13.50;99.90;;;13.14;77.43;101337.22;5053208;28;20782;-74
2023/08/10 03:46:24;;;;;;;4.33;2.83;;;13.40;99.90;;;13.07;76.90;101338.81;5054122;28;20646;-74
2023/08/10 03:48:56;;;;;;;6.20;2.80;;;13.40;99.90;;;12.96;78.16;101344.47;5053567;28;20285;-74
2023/08/10 03:51:28;;;;;;;4.20;2.90;;;13.30;99.90;;;13.01;77.72;101346.69;5053507;28;20305;-74
2023/08/10 03:54:00;;;;;;;8.00;2.70;;;13.30;99.90;;;13.05;77.36;101354.25;5053092;28;20633;-74
2023/08/10 03:56:32;;;;;;;3.37;2.30;;;13.50;99.90;;;13.08;76.87;101359.31;5053262;28;20277;-74
2023/08/10 03:59:05;;;;;;;3.30;2.50;;;13.50;99.90;;;12.93;76.99;101355.56;5053409;28;20277;-74
2023/08/10 04:01:37;;;;;;;4.77;2.70;;;13.30;99.90;;;12.91;77.72;101354.84;5053339;28;20285;-75
2023/08/10 04:04:10;;;;;;;4.53;3.07;;;13.20;99.90;;;12.83;77.94;101364.72;5052979;28;20261;-75
2023/08/10 04:06:42;;;;;;;5.93;2.80;;;13.10;99.90;;;12.81;77.77;101362.19;5053318;28;20191;-75
2023/08/10 04:09:14;;;;;;;4.60;2.97;;;13.10;99.90;;;12.82;78.23;101366.56;5052995;28;20595;-75
2023/08/10 04:11:45;;;;;;;5.47;2.57;;;13.10;99.90;;;12.85;78.11;101360.88;5053288;28;20190;-75
2023/08/10 04:14:18;;;;;;;3.83;2.70;;;13.30;99.90;;;12.74;79.54;101371.06;5053184;28;20767;-75
2023/08/10 04:16:51;;;;;;;6.67;2.90;;;13.00;99.90;;;12.86;78.73;101369.78;5053757;28;20213;-74
2023/08/10 04:19:24;;;;;;;5.73;2.80;;;13.20;99.90;;;12.93;77.75;101381.59;5053201;28;20258;-75
2023/08/10 04:21:56;;;;;;;3.67;2.70;;;13.00;99.90;;;13.00;77.72;101375.41;5052877;28;20187;-74
2023/08/10 04:24:28;;;;;;;4.23;2.63;;;13.40;99.90;;;12.99;77.98;101372.88;5052887;28;20699;-73
2023/08/10 04:27:00;;;;;;;5.23;2.83;;;13.50;99.90;;;12.99;77.64;101365.66;5053153;28;20233;-74
2023/08/10 04:29:33;;;;;;;3.17;2.60;;;13.40;99.90;;;12.97;77.73;101373.06;5052780;28;20595;-74
2023/08/10 04:32:05;;;;;;;3.03;2.40;;;13.40;99.90;;;12.92;79.21;101379.88;5053083;28;20281;-74
2023/08/10 04:34:37;;;;;;;3.67;2.60;;;13.20;99.90;;;12.93;77.99;101376.22;5052743;28;20191;-74
2023/08/10 04:37:09;;;;;;;6.87;3.43;;;13.40;99.90;;;12.92;78.92;101386.13;5053107;28;20278;-74
2023/08/10 04:39:43;;;;;;;4.33;2.90;;;13.30;99.90;;;12.96;79.43;101384.78;5053171;28;20237;-73
2023/08/10 04:42:15;;;;;;;6.60;3.33;;;13.40;99.90;;;12.99;79.78;101380.94;5052961;28;20277;-74
2023/08/10 04:44:48;;;;;;;9.17;3.53;;;13.40;99.90;;;12.98;80.89;101379.28;5052985;28;20281;-74
2023/08/10 04:47:20;;;;;;;8.23;3.20;;;13.40;99.90;;;12.94;80.29;101372.53;5052567;28;20267;-73
2023/08/10 04:49:52;;;;;;;6.97;3.77;;;13.40;99.90;;;12.92;81.19;101385.25;5052581;28;20194;-74
2023/08/10 04:52:24;;;;;;;6.07;3.20;;;13.30;99.90;;;12.91;81.36;101383.59;5053368;28;20258;-74
2023/08/10 04:54:56;;;;;;;7.60;3.70;;;13.30;99.90;;;12.92;82.42;101386.13;5052469;28;20576;-74
2023/08/10 04:57:28;;;;;;;6.63;4.00;;;13.40;99.90;;;12.91;82.91;101389.78;5052870;28;20248;-74
2023/08/10 05:00:02;;;;;;;5.03;3.40;;;13.30;99.90;;;12.93;82.62;101393.19;5052800;28;20245;-74
2023/08/10 05:02:34;;;;;;;7.57;3.70;;;13.40;99.90;;;12.93;82.66;101398.56;5052674;28;20280;-74
2023/08/10 05:05:07;;;;;;;8.00;3.70;;;13.40;99.90;;;12.94;82.57;101394.03;5052476;28;20572;-74
2023/08/10 05:07:39;;;;;;;11.97;4.33;;;13.40;99.90;;;12.95;83.74;101395.69;5054016;28;20190;-74
2023/08/10 05:10:12;;;;;;;9.47;4.00;;;13.40;99.90;;;12.91;84.23;101399.72;5056370;28;20241;-74
2023/08/10 05:12:44;;;;;;;12.37;4.37;;;13.30;99.90;;;12.91;84.49;101400.53;5056613;28;20261;-74
2023/08/10 05:15:20;;;;;;;7.63;4.37;;;13.30;99.90;;;12.91;85.52;101403.22;5056339;28;20294;-74
2023/08/10 05:17:52;;;;;;;11.33;4.53;;;13.30;99.90;;;12.91;86.33;101405.09;5056246;28;20201;-73
2023/08/10 05:20:24;;;;;;;7.80;4.53;;;13.40;99.90;;;12.91;86.07;101410.47;5056145;28;20282;-73
2023/08/10 05:22:55;;;;;;;9.50;5.00;;;13.40;99.90;;;12.89;86.47;101412.47;5056077;28;20279;-73
2023/08/10 05:25:27;;;;;;;12.63;5.20;;;13.30;99.90;;;12.91;87.14;101410.47;5056169;28;20265;-74
2023/08/10 05:27:59;;;;;;;11.87;6.03;;;13.40;99.90;;;12.89;88.01;101407.94;5056072;28;20191;-74
2023/08/10 05:30:32;;;;;;;12.03;5.50;;;13.40;99.90;;;12.91;88.22;101413.97;5055925;28;20210;-74
2023/08/10 05:33:04;;;;;;;12.50;6.17;;;13.40;99.90;;;12.95;88.18;101411.81;5055917;28;20226;-74
2023/08/10 05:35:36;;;;;;;13.57;5.50;;;13.40;99.90;;;12.98;88.14;101408.84;5055792;28;20244;-74
2023/08/10 05:38:09;;;;;;;12.53;6.13;;;13.40;99.90;;;13.00;89.24;101409.50;5055590;28;20371;-74
2023/08/10 05:40:41;;;;;;;11.93;6.27;;;13.50;99.90;;;13.02;88.99;101408.34;5055847;28;20191;-74
2023/08/10 05:43:13;;;;;;;11.30;6.00;;;13.50;99.90;;;13.02;88.76;101410.19;5055715;28;20317;-74
2023/08/10 05:45:47;;;;;;;10.63;5.90;;;13.50;99.90;;;13.05;88.42;101412.53;5055836;28;20197;-74
2023/08/10 05:48:19;;;;;;;11.77;6.33;;;13.60;99.90;;;13.08;88.69;101412.25;5055924;28;20198;-73
2023/08/10 05:50:51;;;;;;;12.13;6.50;;;13.60;99.90;;;13.11;88.85;101414.66;5055602;28;20306;-73
2023/08/10 05:53:23;;;;;;;10.63;5.93;;;13.60;99.90;;;13.14;88.36;101411.63;5055557;28;20316;-73
2023/08/10 05:55:55;;;;;;;10.97;5.87;;;13.70;99.90;;;13.15;88.19;101416.84;5055531;28;20217;-74
2023/08/10 05:58:27;;;;;;;9.00;5.93;;;13.70;99.90;;;13.18;88.47;101423.75;5055516;28;20194;-74
2023/08/10 06:01:01;;;;;;;13.00;6.70;;;13.70;99.90;;;13.21;88.62;101418.06;5055547;28;20210;-74
2023/08/10 06:03:32;;;;;;;9.93;6.57;;;13.80;99.90;;;13.26;89.14;101420.25;5056128;28;20237;-74
2023/08/10 06:06:06;;;;;;;11.57;5.60;;;13.80;99.90;;;13.27;88.51;101417.41;5055384;28;20202;-73
2023/08/10 06:08:38;;;;;;;9.40;6.13;;;13.90;99.90;;;13.28;88.63;101419.09;5055322;28;20194;-73
2023/08/10 06:11:11;;;;;;;14.37;6.03;;;13.80;99.90;;;13.33;88.72;101415.91;5055236;28;20305;-74
2023/08/10 06:13:43;;;;;;;12.23;6.40;;;13.90;99.90;;;13.34;88.64;101423.81;5055190;28;20230;-74
2023/08/10 06:16:16;;;;;;;13.43;6.60;;;13.90;99.90;;;13.40;88.66;101420.47;5055262;28;20194;-74
2023/08/10 06:18:51;;;;;;;12.93;6.43;;;14.00;99.90;;;13.43;88.07;101422.84;5054763;28;20267;-74
2023/08/10 06:21:23;;;;;;;9.43;5.83;;;14.00;99.90;;;13.50;87.31;101421.19;5055076;28;20213;-74
2023/08/10 06:23:55;;;;;;;10.47;5.87;;;14.10;99.90;;;13.52;87.35;101421.88;5054960;28;20222;-74
2023/08/10 06:26:27;;;;;;;13.50;5.50;;;14.10;99.90;;;13.56;87.02;101422.41;5055023;28;20241;-74
2023/08/10 06:28:59;;;;;;;10.70;5.40;;;14.10;99.90;;;13.60;87.33;101429.97;5054785;28;20196;-74
2023/08/10 06:31:32;;;;;;;12.67;5.53;;;14.10;99.90;;;13.64;87.92;101430.50;5054953;28;20317;-74
2023/08/10 06:34:04;;;;;;;13.80;6.13;;;14.30;99.90;;;13.66;88.08;101428.50;5054876;28;20283;-74
2023/08/10 06:36:36;;;;;;;14.23;5.83;;;14.30;99.90;;;13.68;87.54;101421.94;5054773;28;20233;-74
2023/08/10 06:39:10;;;;;;;21.17;6.87;;;14.30;99.90;;;13.77;87.70;101435.44;5054802;28;20191;-74
2023/08/10 06:41:42;;;;;;;15.83;6.20;;;14.30;99.90;;;13.84;86.37;101431.88;5054702;28;20236;-74
2023/08/10 06:44:14;;;;;;;15.33;5.73;;;14.40;99.90;;;13.90;85.38;101430.41;5054753;28;20226;-74
2023/08/10 06:46:49;;;;;;;12.50;5.30;;;14.50;99.90;;;13.98;83.84;101438.47;5054395;28;20214;-74
2023/08/10 06:49:23;;;;;;;14.43;4.53;;;14.60;99.90;;;13.98;84.71;101433.94;5054499;28;20210;-74
2023/08/10 06:51:55;;;;;;;14.93;4.70;;;14.60;99.90;;;14.06;83.13;101441.19;5054431;28;20241;-74
2023/08/10 06:54:28;;;;;;;8.83;3.80;;;14.70;99.90;;;14.09;81.47;101436.31;5054453;28;20225;-74
2023/08/10 06:57:00;;;;;;;10.80;3.53;;;14.70;99.90;;;14.21;80.55;101444.94;5054433;28;20269;-74
2023/08/10 06:59:32;;;;;;;14.10;4.40;;;14.80;99.90;;;14.27;83.26;101448.78;5054309;28;20230;-75
2023/08/10 07:02:09;;;;;;;8.50;3.53;;;15.00;99.90;;;14.39;79.77;101442.94;5055274;28;20232;-75
2023/08/10 07:04:45;;;;;;;10.90;3.77;;;15.00;99.90;;;14.41;79.80;101451.72;5053893;28;20644;-75
2023/08/10 07:07:17;;;;;;;6.87;3.37;;;15.00;99.90;;;14.44;79.06;101450.53;5054218;28;20209;-74
2023/08/10 07:09:49;;;;;;;7.80;2.90;;;15.00;99.90;;;14.37;80.09;101454.91;5054159;28;20210;-75
2023/08/10 07:12:22;;;;;;;6.27;2.73;;;15.00;99.90;;;14.35;80.61;101452.34;5053957;28;20324;-75
2023/08/10 07:14:54;;;;;;;6.07;2.43;;;15.00;99.90;;;14.39;78.76;101448.31;5054022;28;20290;-75
2023/08/10 07:17:27;;;;;;;7.37;3.03;;;15.00;99.90;;;14.45;78.96;101450.34;5053685;28;20234;-75
2023/08/10 07:19:59;;;;;;;7.80;3.50;;;15.10;99.90;;;14.47;81.07;101445.66;5054008;28;20194;-75
2023/08/10 07:22:31;;;;;;;7.40;3.70;;;15.10;99.90;;;14.52;80.71;101447.84;5054582;28;20276;-74
2023/08/10 07:25:05;;;;;;;8.43;3.30;;;15.20;99.90;;;14.73;78.32;101440.91;5053891;28;20190;-74
2023/08/10 07:27:38;;;;;;;8.80;3.50;;;15.30;99.90;;;14.72;80.51;101441.09;5053818;28;20598;-74
2023/08/10 07:30:10;;;;;;;7.07;2.87;;;15.30;99.90;;;14.88;74.25;101442.91;5053161;28;20265;-75
2023/08/10 07:32:45;;;;;;;7.17;2.50;;;15.50;99.90;;;14.96;74.95;101445.59;5053757;28;20325;-74
2023/08/10 07:35:15;;;;;;;4.93;2.80;;;15.60;99.90;;;15.04;75.60;101453.66;5053786;28;20205;-74
2023/08/10 07:37:48;;;;;;;5.50;3.30;;;15.70;99.90;;;15.06;79.50;101444.41;5053635;28;20206;-74
2023/08/10 07:40:20;;;;;;;8.33;2.70;;;15.70;99.90;;;15.14;77.22;101452.44;5053617;28;20186;-74
2023/08/10 07:42:52;;;;;;;7.27;2.60;;;15.80;99.90;;;15.18;73.17;101450.25;5053503;28;20312;-74
2023/08/10 07:45:24;;;;;;;4.60;2.63;;;15.80;99.90;;;15.22;72.44;101451.59;5053535;28;20281;-74
2023/08/10 07:47:58;;;;;;;5.63;2.40;;;15.80;99.90;;;15.19;74.89;101451.94;5053147;28;20296;-74
2023/08/10 07:50:33;;;;;;;11.70;2.77;;;15.80;99.90;;;15.24;73.94;101450.41;5053195;28;20604;-74
2023/08/10 07:53:05;;;;;;;5.40;2.17;;;15.80;99.90;;;15.34;72.12;101455.63;5053279;28;20321;-74
2023/08/10 07:55:37;;;;;;;4.63;2.30;;;15.90;99.90;;;15.37;71.45;101455.28;5053426;28;20218;-74
2023/08/10 07:58:10;;;;;;;7.53;2.03;;;16.00;99.90;;;15.42;70.80;101452.88;5053110;28;20691;-74
2023/08/10 08:00:43;;;;;;;4.10;1.80;;;16.00;99.90;;;15.39;72.66;101452.38;5053415;28;20269;-74
2023/08/10 08:03:17;;;;;;;5.23;2.40;;;16.00;99.90;;;15.41;73.65;101456.56;5053240;28;20222;-74
2023/08/10 08:05:50;;;;;;;6.83;2.57;;;16.00;99.90;;;15.43;72.62;101451.03;5053346;28;20194;-73
2023/08/10 08:08:24;;;;;;;7.10;2.33;;;16.00;99.90;;;15.52;71.39;101456.22;5053529;28;20194;-73
2023/08/10 08:10:56;;;;;;;6.03;1.83;;;16.10;99.90;;;15.54;72.73;101458.78;5053031;28;20209;-73
2023/08/10 08:13:28;;;;;;;5.40;2.43;;;16.20;99.90;;;15.60;71.56;101453.50;5053793;28;20238;-74
2023/08/10 08:16:00;;;;;;;6.30;2.60;;;16.20;99.90;;;15.62;71.58;101453.31;5053227;28;20278;-74
2023/08/10 08:18:47;;;;;;;9.93;2.90;;;16.20;99.90;;;15.67;72.90;101459.03;5052935;28;20726;-74
2023/08/10 08:21:23;;;;;;;7.43;2.93;;;16.30;99.90;;;15.69;72.32;101457.84;5053320;28;20316;-73
2023/08/10 08:23:57;;;;;;;5.27;2.50;;;16.30;99.90;;;15.76;71.74;101449.03;5052707;28;20217;-73
2023/08/10 08:26:32;;;;;;;12.70;2.43;;;16.40;99.90;;;15.89;71.44;101454.72;5053139;28;20190;-73
2023/08/10 08:29:04;;;;;;;7.27;2.30;;;16.50;99.90;;;15.95;70.18;101451.31;5052851;28;20603;-74
2023/08/10 08:31:36;;;;;;;9.20;2.90;;;16.50;99.90;;;16.00;70.07;101446.19;5053030;28;20233;-59
2023/08/10 08:34:10;;;;;;;7.87;2.43;;;16.60;99.90;;;16.11;69.49;101448.50;5052862;28;20261;-73
2023/08/10 08:36:44;;;;;;;5.80;2.23;;;16.70;99.90;;;16.12;70.89;101450.19;5052930;28;20273;-73
2023/08/10 08:39:17;;;;;;;8.13;2.37;;;16.70;99.90;;;16.27;67.86;101453.78;5052903;28;20263;-73
2023/08/10 08:41:51;;;;;;;4.93;1.90;;;16.80;99.90;;;16.38;65.36;101449.81;5055004;28;20289;-73
2023/08/10 08:44:24;;;;;;;6.67;2.10;;;17.00;99.90;;;16.52;64.79;101457.97;5056930;28;20237;-73
2023/08/10 08:46:56;;;;;;;5.67;2.53;;;17.10;99.90;;;16.67;64.61;101453.50;5056476;28;20310;-74
2023/08/10 08:49:30;;;;;;;6.27;2.00;;;17.30;99.90;;;16.85;65.91;101455.03;5056822;28;20218;-74
2023/08/10 08:52:02;;;;;;;7.47;2.03;;;17.40;99.90;;;16.92;67.13;101464.09;5056302;28;20248;-74
2023/08/10 08:54:36;;;;;;;7.07;4.30;;;17.50;99.90;;;17.03;68.77;101455.50;5056749;28;20193;-74
2023/08/10 08:57:08;;;;;;;9.23;2.40;;;17.70;99.90;;;17.05;64.90;101458.88;5056391;28;20289;-74
2023/08/10 08:59:40;;;;;;;10.90;2.43;;;17.60;99.90;;;17.12;64.83;101454.41;5056638;28;20218;-74
2023/08/10 09:02:14;;;;;;;4.53;2.30;;;17.70;99.90;;;17.33;64.36;101464.50;5056212;28;20279;-74
2023/08/10 09:04:52;;;;;;;7.67;2.30;;;17.90;99.90;;;17.34;64.30;101455.34;5056558;28;20194;-74
2023/08/10 09:07:24;;;;;;;4.97;2.03;;;17.90;99.90;;;17.38;64.05;101462.06;5056494;28;20224;-74
2023/08/10 09:09:56;;;;;;;4.40;2.20;;;18.00;99.90;;;17.39;62.31;101450.22;5056158;28;20236;-74
2023/08/10 09:12:38;;;;;;;5.67;2.13;;;18.00;99.90;;;17.52;62.97;101450.38;5056228;28;20313;-74
2023/08/10 09:15:14;;;;;;;3.73;1.70;;;18.10;99.90;;;17.54;62.49;101454.56;5056539;28;20218;-73
2023/08/10 09:17:51;;;;;;;10.07;2.60;;;18.10;99.90;;;17.64;64.84;101455.16;5056269;28;20194;-73
2023/08/10 09:20:27;;;;;;;6.67;2.27;;;18.20;99.90;;;17.85;58.05;101445.41;5056095;28;20197;-73
2023/08/10 09:23:04;;;;;;;7.13;1.87;;;18.40;97.10;;;17.95;57.23;101445.94;5056123;28;20307;-74
2023/08/10 09:25:45;;;;;;;8.33;1.80;;;18.50;96.60;;;17.97;59.47;101455.56;5057104;28;20275;-73
2023/08/10 09:28:17;;;;;;;9.33;2.50;;;18.50;98.20;;;17.85;61.84;101453.53;5056842;28;20213;-73
2023/08/10 09:30:51;;;;;;;9.10;2.13;;;18.40;99.30;;;17.76;61.21;101460.09;5056686;28;20190;-73
2023/08/10 09:33:32;;;;;;;4.70;2.23;;;18.20;98.90;;;17.76;61.50;101457.38;5056280;28;20245;-74
2023/08/10 09:36:08;;;;;;;4.33;2.27;;;18.20;99.00;;;17.85;60.79;101450.81;5056277;28;20214;-72
2023/08/10 09:38:49;;;;;;;5.00;1.90;;;18.30;98.70;;;17.95;57.23;101451.34;5055848;28;20190;-74
2023/08/10 09:41:23;;;;;;;5.30;1.70;;;18.40;96.50;;;18.10;58.88;101444.03;5055832;28;20214;-74
2023/08/10 09:43:55;;;;;;;6.07;2.00;;;18.60;97.50;;;18.32;56.70;101459.28;5055379;28;20257;-74
2023/08/10 09:46:30;;;;;;;8.30;1.93;;;18.80;96.30;;;18.44;56.09;101457.72;5055590;28;20301;-74
2023/08/10 09:49:03;;;;;;;6.27;2.23;;;18.90;96.00;;;18.53;59.79;101448.44;5055417;28;20190;-75
2023/08/10 09:51:44;;;;;;;6.33;2.17;;;19.00;97.80;;;18.70;58.02;101452.56;5055482;28;20654;-75
2023/08/10 09:54:15;;;;;;;8.77;2.20;;;19.30;96.60;;;18.78;58.05;101453.44;5054776;28;20234;-75
2023/08/10 09:56:49;;;;;;;3.53;1.80;;;19.30;96.50;;;18.98;54.21;101455.28;5055273;28;20233;-75
2023/08/10 09:59:22;;;;;;;3.30;1.90;;;19.50;94.50;;;18.92;55.77;101460.66;5055211;28;20559;-75
2023/08/10 10:01:55;;;;;;;5.70;2.17;;;19.40;95.10;;;18.79;53.76;101466.00;5055518;28;20562;-75
2023/08/10 10:04:27;;;;;;;6.67;2.00;;;19.30;93.90;;;18.72;53.30;101461.34;5055154;28;20193;-75
2023/08/10 10:07:04;;;;;;;4.13;2.03;;;19.20;93.70;;;18.74;55.13;101461.16;5055391;28;20194;-75
2023/08/10 10:09:38;;;;;;;4.33;2.00;;;19.10;94.70;;;18.83;55.81;101457.28;5055360;28;20228;-75
2023/08/10 10:12:13;;;;;;;7.37;2.13;;;19.30;95.00;;;18.97;53.05;101455.50;5055250;28;20240;-75
2023/08/10 10:14:49;;;;;;;5.63;2.67;;;19.40;93.70;;;19.04;54.42;101453.66;5054928;28;20257;-74
2023/08/10 10:17:23;;;;;;;5.13;2.03;;;19.50;94.10;;;19.08;52.11;101444.06;5055229;28;20233;-74
2023/08/10 10:19:56;;;;;;;3.83;2.20;;;19.50;92.60;;;19.23;51.27;101447.53;5055025;28;20675;-74
2023/08/10 10:22:29;;;;;;;5.60;2.67;;;19.70;92.40;;;19.38;52.34;101452.84;5054992;28;20786;-75
2023/08/10 10:25:02;;;;;;;4.27;1.90;;;19.80;92.50;;;19.35;53.97;101451.34;5055253;28;20187;-75
2023/08/10 10:27:41;;;;;;;4.77;1.97;;;19.70;93.70;;;19.25;50.59;101450.84;5054709;28;20676;-75
2023/08/10 10:30:25;;;;;;;6.10;1.80;;;19.70;92.00;;;19.38;51.57;101448.25;5054799;28;20256;-75
2023/08/10 10:32:57;;;;;;;6.40;1.80;;;19.70;92.00;;;19.57;49.86;101450.25;5054743;28;20308;-75
2023/08/10 10:35:36;;;;;;;5.57;1.97;;;20.00;91.10;;;19.59;49.64;101447.31;5054536;28;20649;-75